createdAt,value
2018-07-01T00:01:25.104Z,1.17
2018-07-01T00:03:54.473Z,1.20
2018-07-01T00:06:23.875Z,1.03
2018-07-01T00:08:53.174Z,1.67
2018-07-01T00:11:22.438Z,1.30
2018-07-01T00:13:51.927Z,1.00
2018-07-01T00:16:21.276Z,1.43
2018-07-01T00:18:50.511Z,1.20
2018-07-01T00:21:20.172Z,1.30
2018-07-01T00:23:49.465Z,1.20
2018-07-01T00:26:18.745Z,1.40
2018-07-01T00:28:47.985Z,1.07
2018-07-01T00:31:17.411Z,1.10
2018-07-01T00:33:46.699Z,1.00
2018-07-01T00:36:16.137Z,1.10
2018-07-01T00:38:45.449Z,1.13
2018-07-01T00:41:14.871Z,1.23
2018-07-01T00:43:45.235Z,1.07
2018-07-01T00:46:14.510Z,1.30
2018-07-01T00:48:43.804Z,1.50
2018-07-01T00:51:13.146Z,1.30
2018-07-01T00:53:42.414Z,1.07
2018-07-01T00:56:12.195Z,0.80
2018-07-01T00:58:41.614Z,1.27
2018-07-01T01:01:11.164Z,1.30
2018-07-01T01:03:40.367Z,1.10
2018-07-01T01:06:10.596Z,1.00
2018-07-01T01:08:40.316Z,1.27
2018-07-01T01:11:09.593Z,1.17
2018-07-01T01:13:38.857Z,1.10
2018-07-01T01:16:08.384Z,1.23
2018-07-01T01:18:37.863Z,1.17
2018-07-01T01:21:07.299Z,1.00
2018-07-01T01:23:36.620Z,0.53
2018-07-01T01:26:05.987Z,0.80
2018-07-01T01:28:35.364Z,0.83
2018-07-01T01:31:05.345Z,0.80
2018-07-01T01:33:35.485Z,0.90
2018-07-01T01:36:05.523Z,0.93
2018-07-01T01:38:36.824Z,0.67
2018-07-01T01:41:10.179Z,1.00
2018-07-01T01:43:43.740Z,0.80
2018-07-01T01:46:51.001Z,0.80
2018-07-01T01:49:34.747Z,1.10
2018-07-01T01:52:09.307Z,1.10
2018-07-01T01:54:44.521Z,1.13
2018-07-01T01:57:24.993Z,1.00
2018-07-01T02:00:01.324Z,1.00
2018-07-01T02:02:36.301Z,1.03
2018-07-01T02:05:12.408Z,0.97
2018-07-01T02:07:46.503Z,0.67
2018-07-01T02:10:15.822Z,1.33
2018-07-01T02:12:45.106Z,0.83
2018-07-01T02:15:24.536Z,1.13
2018-07-01T02:17:54.940Z,1.10
2018-07-01T02:20:27.606Z,0.80
2018-07-01T02:23:02.759Z,0.80
2018-07-01T02:25:33.585Z,0.80
2018-07-01T02:28:02.934Z,0.80
2018-07-01T02:30:32.329Z,1.17
2018-07-01T02:33:01.883Z,1.10
2018-07-01T02:35:31.246Z,0.80
2018-07-01T02:38:00.788Z,0.90
2018-07-01T02:40:30.174Z,0.90
2018-07-01T02:43:00.114Z,0.90
2018-07-01T02:45:29.439Z,0.83
2018-07-01T02:47:58.721Z,0.90
2018-07-01T02:50:28.103Z,0.87
2018-07-01T02:52:58.848Z,0.83
2018-07-01T02:55:28.102Z,1.00
2018-07-01T02:57:57.340Z,0.90
2018-07-01T03:00:26.737Z,1.17
2018-07-01T03:02:56.042Z,0.83
2018-07-01T03:05:25.269Z,1.17
2018-07-01T03:07:54.496Z,0.80
2018-07-01T03:10:23.804Z,1.00
2018-07-01T03:12:53.143Z,1.20
2018-07-01T03:15:22.466Z,1.03
2018-07-01T03:17:51.769Z,0.90
2018-07-01T03:20:21.276Z,0.70
2018-07-01T03:22:50.632Z,1.03
2018-07-01T03:25:20.240Z,1.00
2018-07-01T03:27:49.660Z,0.90
2018-07-01T03:30:19.109Z,3.40
2018-07-01T03:32:49.172Z,0.90
2018-07-01T03:35:18.518Z,0.60
2018-07-01T03:37:47.460Z,0.80
2018-07-01T03:40:16.777Z,0.70
2018-07-01T03:42:46.213Z,0.83
2018-07-01T03:45:16.559Z,0.70
2018-07-01T03:47:45.952Z,0.50
2018-07-01T03:50:15.013Z,0.80
2018-07-01T03:52:44.346Z,0.93
2018-07-01T03:55:13.675Z,0.70
2018-07-01T03:57:43.016Z,0.80
2018-07-01T04:00:12.335Z,0.80
2018-07-01T04:02:41.855Z,0.70
2018-07-01T04:05:11.193Z,0.50
2018-07-01T04:07:40.611Z,0.70
2018-07-01T04:10:10.739Z,0.70
2018-07-01T04:12:40.094Z,0.90
2018-07-01T04:15:09.602Z,1.03
2018-07-01T04:17:39.140Z,1.00
2018-07-01T04:20:08.465Z,0.90
2018-07-01T04:22:37.932Z,1.10
2018-07-01T04:25:07.941Z,1.30
2018-07-01T04:27:37.517Z,1.37
2018-07-01T04:30:07.568Z,1.17
2018-07-01T04:32:37.467Z,0.83
2018-07-01T04:35:07.135Z,1.00
2018-07-01T04:37:37.467Z,1.33
2018-07-01T04:40:06.784Z,1.03
2018-07-01T04:42:36.411Z,1.33
2018-07-01T04:45:05.876Z,1.80
2018-07-01T04:47:35.184Z,1.23
2018-07-01T04:50:04.985Z,1.47
2018-07-01T04:52:34.342Z,2.70
2018-07-01T04:55:03.716Z,2.10
2018-07-01T04:57:33.099Z,1.97
2018-07-01T05:00:02.427Z,2.47
2018-07-01T05:02:31.738Z,2.20
2018-07-01T05:05:01.148Z,2.00
2018-07-01T05:07:30.698Z,2.33
2018-07-01T05:10:00.239Z,2.77
2018-07-01T05:12:29.795Z,3.10
2018-07-01T05:14:59.053Z,2.37
2018-07-01T05:17:28.359Z,2.20
2018-07-01T05:19:57.840Z,2.60
2018-07-01T05:22:27.258Z,2.70
2018-07-01T05:24:56.692Z,2.50
2018-07-01T05:27:26.766Z,2.43
2018-07-01T05:29:56.109Z,2.20
2018-07-01T05:32:25.474Z,2.50
2018-07-01T05:34:54.877Z,1.53
2018-07-01T05:37:24.355Z,2.00
2018-07-01T05:39:54.793Z,1.73
2018-07-01T05:42:24.191Z,1.50
2018-07-01T05:44:53.610Z,1.83
2018-07-01T05:47:22.971Z,1.10
2018-07-01T05:49:53.036Z,1.20
2018-07-01T05:52:22.491Z,1.13
2018-07-01T05:54:53.017Z,1.30
2018-07-01T05:57:22.412Z,0.90
2018-07-01T05:59:52.522Z,1.30
2018-07-01T06:02:22.596Z,1.23
2018-07-01T06:04:52.789Z,1.00
2018-07-01T06:07:22.489Z,1.17
2018-07-01T06:09:51.988Z,1.20
2018-07-01T06:12:22.510Z,1.03
2018-07-01T06:14:53.316Z,1.20
2018-07-01T06:17:24.289Z,0.90
2018-07-01T06:20:01.138Z,1.40
2018-07-01T06:22:30.979Z,0.90
2018-07-01T06:25:00.362Z,1.03
2018-07-01T06:27:29.875Z,0.83
2018-07-01T06:30:00.095Z,0.87
2018-07-01T06:32:30.261Z,1.30
2018-07-01T06:35:00.391Z,0.90
2018-07-01T06:37:29.691Z,0.70
2018-07-01T06:39:59.064Z,1.07
2018-07-01T06:42:28.489Z,1.40
2018-07-01T06:44:57.981Z,0.77
2018-07-01T06:47:27.309Z,0.90
2018-07-01T06:49:57.067Z,0.90
2018-07-01T06:52:26.382Z,0.50
2018-07-01T06:54:55.810Z,0.50
2018-07-01T06:57:24.792Z,1.50
2018-07-01T06:59:54.005Z,1.37
2018-07-01T07:02:24.742Z,0.50
2018-07-01T07:04:54.011Z,1.13
2018-07-01T07:07:23.504Z,0.60
2018-07-01T07:09:52.887Z,0.53
2018-07-01T07:12:24.275Z,0.50
2018-07-01T07:14:59.216Z,1.27
2018-07-01T07:17:28.609Z,0.43
2018-07-01T07:19:58.156Z,0.60
2018-07-01T07:22:28.449Z,0.67
2018-07-01T07:24:58.616Z,0.77
2018-07-01T07:27:29.335Z,0.63
2018-07-01T07:29:59.688Z,0.60
2018-07-01T07:32:29.759Z,0.60
2018-07-01T07:34:59.589Z,0.27
2018-07-01T07:37:29.605Z,0.50
2018-07-01T07:39:59.208Z,0.40
2018-07-01T07:42:29.367Z,0.50
2018-07-01T07:45:00.690Z,0.67
2018-07-01T07:47:29.932Z,0.50
2018-07-01T07:49:59.272Z,0.50
2018-07-01T07:52:29.055Z,0.47
2018-07-01T07:54:58.434Z,0.60
2018-07-01T07:57:28.610Z,0.40
2018-07-01T07:59:58.155Z,0.50
2018-07-01T08:02:27.612Z,0.67
2018-07-01T08:04:57.182Z,0.50
2018-07-01T08:07:27.777Z,0.40
2018-07-01T08:09:57.185Z,0.47
2018-07-01T08:12:26.983Z,0.47
2018-07-01T08:14:56.435Z,0.43
2018-07-01T08:17:25.924Z,0.47
2018-07-01T08:19:57.425Z,0.80
2018-07-01T08:22:27.927Z,1.33
2018-07-01T08:24:57.322Z,0.40
2018-07-01T08:27:27.326Z,0.47
2018-07-01T08:29:56.760Z,0.50
2018-07-01T08:32:26.196Z,0.40
2018-07-01T08:34:56.463Z,0.97
2018-07-01T08:37:26.849Z,0.70
2018-07-01T08:39:56.217Z,0.60
2018-07-01T08:42:28.716Z,0.47
2018-07-01T08:44:59.460Z,0.40
2018-07-01T08:47:30.395Z,0.50
2018-07-01T08:49:59.826Z,0.40
2018-07-01T08:52:29.299Z,0.70
2018-07-01T08:54:58.631Z,2.60
2018-07-01T08:57:27.990Z,0.40
2018-07-01T08:59:57.499Z,0.50
2018-07-01T09:02:27.606Z,0.80
2018-07-01T09:04:57.559Z,0.40
2018-07-01T09:07:26.776Z,0.60
2018-07-01T09:09:56.138Z,0.50
2018-07-01T09:12:25.585Z,0.53
2018-07-01T09:14:54.563Z,0.60
2018-07-01T09:17:23.797Z,0.40
2018-07-01T09:19:53.713Z,0.70
2018-07-01T09:22:22.977Z,0.47
2018-07-01T09:24:52.452Z,0.60
2018-07-01T09:27:22.688Z,0.40
2018-07-01T09:29:57.569Z,0.80
2018-07-01T09:32:26.582Z,0.67
2018-07-01T09:34:55.796Z,1.70
2018-07-01T09:37:25.349Z,0.77
2018-07-01T09:39:54.926Z,0.60
2018-07-01T09:42:24.229Z,0.50
2018-07-01T09:44:53.736Z,0.87
2018-07-01T09:47:23.176Z,0.47
2018-07-01T09:49:52.480Z,0.90
2018-07-01T09:52:22.112Z,0.87
2018-07-01T09:54:52.137Z,0.43
2018-07-01T09:57:21.417Z,0.83
2018-07-01T09:59:50.913Z,0.50
2018-07-01T10:02:20.136Z,0.70
2018-07-01T10:04:51.536Z,0.30
2018-07-01T10:07:20.498Z,0.77
2018-07-01T10:09:49.670Z,0.53
2018-07-01T10:12:18.971Z,0.50
2018-07-01T10:14:48.277Z,0.40
2018-07-01T10:17:18.511Z,0.40
2018-07-01T10:19:47.807Z,0.50
2018-07-01T10:22:18.333Z,0.47
2018-07-01T10:24:47.628Z,0.90
2018-07-01T10:27:16.908Z,0.53
2018-07-01T10:29:46.312Z,0.30
2018-07-01T10:32:15.527Z,0.60
2018-07-01T10:34:44.779Z,0.60
2018-07-01T10:37:14.397Z,0.87
2018-07-01T10:39:43.648Z,0.60
2018-07-01T10:42:12.936Z,0.60
2018-07-01T10:44:42.179Z,1.20
2018-07-01T10:47:11.488Z,0.73
2018-07-01T10:49:40.709Z,0.50
2018-07-01T10:52:10.072Z,1.20
2018-07-01T10:54:39.372Z,0.63
2018-07-01T10:57:08.623Z,2.10
2018-07-01T10:59:39.037Z,1.63
2018-07-01T11:02:08.348Z,1.03
2018-07-01T11:04:37.572Z,0.70
2018-07-01T11:07:06.545Z,0.37
2018-07-01T11:09:35.715Z,0.80
2018-07-01T11:12:05.018Z,0.63
2018-07-01T11:14:34.367Z,0.50
2018-07-01T11:17:03.600Z,0.60
2018-07-01T11:19:33.448Z,0.83
2018-07-01T11:22:03.571Z,0.57
2018-07-01T11:24:32.968Z,0.60
2018-07-01T11:27:03.009Z,0.67
2018-07-01T11:29:32.141Z,0.67
2018-07-01T11:32:01.390Z,0.40
2018-07-01T11:34:30.941Z,1.00
2018-07-01T11:37:00.684Z,0.50
2018-07-01T11:39:30.040Z,0.53
2018-07-01T11:41:59.316Z,1.30
2018-07-01T11:44:29.093Z,0.83
2018-07-01T11:46:59.477Z,1.00
2018-07-01T11:49:28.858Z,0.60
2018-07-01T11:51:58.105Z,0.77
2018-07-01T11:54:27.489Z,0.80
2018-07-01T11:56:56.880Z,1.77
2018-07-01T11:59:26.167Z,0.90
2018-07-01T12:01:55.124Z,1.50
2018-07-01T12:04:25.176Z,0.50
2018-07-01T12:06:54.615Z,0.67
2018-07-01T12:55:19.677Z,1.10
2018-07-01T12:57:49.075Z,0.80
2018-07-01T13:00:18.436Z,0.50
2018-07-01T13:02:47.765Z,0.90
2018-07-01T13:05:17.224Z,0.80
2018-07-01T13:07:46.505Z,0.67
2018-07-01T13:10:15.944Z,0.80
2018-07-01T13:12:45.268Z,0.80
2018-07-01T13:15:14.730Z,0.30
2018-07-01T13:17:44.133Z,0.70
2018-07-01T13:20:13.487Z,0.73
2018-07-01T13:22:42.875Z,1.00
2018-07-01T13:25:12.177Z,0.50
2018-07-01T13:27:41.223Z,1.10
2018-07-01T13:30:11.196Z,0.70
2018-07-01T13:32:40.751Z,0.70
2018-07-01T13:35:10.069Z,0.90
2018-07-01T13:37:39.364Z,0.90
2018-07-01T13:40:08.801Z,0.77
2018-07-01T13:42:38.097Z,1.17
2018-07-01T13:45:08.426Z,1.53
2018-07-01T13:47:37.788Z,0.60
2018-07-01T13:50:08.445Z,1.30
2018-07-01T13:55:20.082Z,0.93
2018-07-01T13:57:49.863Z,0.80
2018-07-01T14:00:20.014Z,0.60
2018-07-01T14:02:50.123Z,0.80
2018-07-01T14:05:20.627Z,0.50
2018-07-01T14:07:50.959Z,0.50
2018-07-01T14:10:20.767Z,0.70
2018-07-01T14:12:50.046Z,0.40
2018-07-01T14:15:19.772Z,0.30
2018-07-01T14:17:48.718Z,0.60
2018-07-01T14:20:17.925Z,0.60
2018-07-01T14:22:47.271Z,0.97
2018-07-01T14:25:16.776Z,0.67
2018-07-01T14:27:45.804Z,0.60
2018-07-01T14:30:14.985Z,1.00
2018-07-01T14:32:44.188Z,0.70
2018-07-01T14:35:13.787Z,0.50
2018-07-01T14:37:43.125Z,0.50
2018-07-01T14:40:12.614Z,0.30
2018-07-01T14:42:42.161Z,0.70
2018-07-01T14:45:11.420Z,0.70
2018-07-01T14:47:40.805Z,0.83
2018-07-01T14:50:11.258Z,0.60
2018-07-01T14:52:41.517Z,0.47
2018-07-01T14:55:11.516Z,0.70
2018-07-01T14:57:41.525Z,0.90
2018-07-01T15:00:10.907Z,0.40
2018-07-01T15:02:40.246Z,0.77
2018-07-01T15:05:09.650Z,0.50
2018-07-01T15:07:39.007Z,0.70
2018-07-01T15:10:08.303Z,0.80
2018-07-01T15:12:38.066Z,0.60
2018-07-01T15:15:07.354Z,0.70
2018-07-01T15:17:36.596Z,0.70
2018-07-01T15:20:05.962Z,0.50
2018-07-01T15:22:35.840Z,0.60
2018-07-01T15:25:05.203Z,0.50
2018-07-01T15:27:34.441Z,0.40
2018-07-01T15:30:05.027Z,0.70
2018-07-01T15:32:34.544Z,2.27
2018-07-01T15:35:03.899Z,2.70
2018-07-01T15:37:32.963Z,1.87
2018-07-01T15:40:02.137Z,0.60
2018-07-01T15:42:32.603Z,0.60
2018-07-01T15:45:02.211Z,0.60
2018-07-01T15:47:33.591Z,0.50
2018-07-01T15:50:03.869Z,0.63
2018-07-01T15:52:32.912Z,0.80
2018-07-01T15:55:02.676Z,0.47
2018-07-01T15:57:32.294Z,0.53
2018-07-01T16:00:02.672Z,0.70
2018-07-01T16:02:31.916Z,0.90
2018-07-01T16:05:01.242Z,1.00
2018-07-01T16:07:30.661Z,0.40
2018-07-01T16:10:00.084Z,0.43
2018-07-01T16:12:29.304Z,0.40
2018-07-01T16:14:58.733Z,0.40
2018-07-01T16:17:28.001Z,0.50
2018-07-01T16:19:57.326Z,0.57
2018-07-01T16:22:26.545Z,0.47
2018-07-01T16:25:01.075Z,0.40
2018-07-01T16:27:33.480Z,0.70
2018-07-01T16:30:04.989Z,0.40
2018-07-01T16:32:35.443Z,0.60
2018-07-01T16:35:05.450Z,0.60
2018-07-01T16:37:34.874Z,0.93
2018-07-01T16:40:04.324Z,2.13
2018-07-01T16:42:33.766Z,2.43
2018-07-01T16:45:03.165Z,2.00
2018-07-01T16:47:32.820Z,1.10
2018-07-01T16:50:02.105Z,1.00
2018-07-01T16:52:32.050Z,1.53
2018-07-01T16:55:01.432Z,1.33
2018-07-01T16:57:30.862Z,0.90
2018-07-01T17:00:00.153Z,0.87
2018-07-01T17:02:29.576Z,0.83
2018-07-01T17:04:59.739Z,0.77
2018-07-01T17:07:29.066Z,0.93
2018-07-01T17:09:58.397Z,0.67
2018-07-01T17:12:36.508Z,0.97
2018-07-01T17:15:06.492Z,1.10
2018-07-01T17:17:35.806Z,0.67
2018-07-01T17:20:05.650Z,0.83
2018-07-01T17:22:42.010Z,0.80
2018-07-01T17:25:11.735Z,1.33
2018-07-01T17:27:41.005Z,0.60
2018-07-01T17:30:10.227Z,0.70
2018-07-01T17:32:44.753Z,0.60
2018-07-01T17:35:14.122Z,0.53
2018-07-01T17:37:44.128Z,0.60
2018-07-01T17:40:14.023Z,0.80
2018-07-01T17:42:43.397Z,0.40
2018-07-01T17:45:12.912Z,0.70
2018-07-01T17:47:42.910Z,0.90
2018-07-01T17:50:11.904Z,0.60
2018-07-01T17:52:41.280Z,0.80
2018-07-01T17:55:10.757Z,0.90
2018-07-01T17:57:40.912Z,0.90
2018-07-01T18:00:09.963Z,0.50
2018-07-01T18:02:38.832Z,0.70
2018-07-01T18:05:08.210Z,1.90
2018-07-01T18:07:38.037Z,0.83
2018-07-01T18:10:07.270Z,0.97
2018-07-01T18:12:36.625Z,1.00
2018-07-01T18:15:06.580Z,1.50
2018-07-01T18:17:35.913Z,0.80
2018-07-01T18:20:05.336Z,1.10
2018-07-01T18:23:00.802Z,0.90
2018-07-01T18:25:09.840Z,1.03
2018-07-01T18:27:35.063Z,0.60
2018-07-01T18:30:02.980Z,0.87
2018-07-01T18:32:32.513Z,0.70
2018-07-01T18:35:01.756Z,0.60
2018-07-01T18:37:31.071Z,0.80
2018-07-01T18:40:00.453Z,0.57
2018-07-01T18:42:29.770Z,0.63
2018-07-01T18:44:59.183Z,0.50
2018-07-01T18:47:28.409Z,0.70
2018-07-01T18:49:58.710Z,0.83
2018-07-01T18:52:28.042Z,0.70
2018-07-01T18:54:57.387Z,0.40
2018-07-01T18:57:26.681Z,0.50
2018-07-01T18:59:55.722Z,0.70
2018-07-01T19:02:25.662Z,0.60
2018-07-01T19:04:55.081Z,0.60
2018-07-01T19:07:24.376Z,0.70
2018-07-01T19:09:53.634Z,0.50
2018-07-01T19:12:23.079Z,0.67
2018-07-01T19:14:52.696Z,0.60
2018-07-01T19:17:22.318Z,0.63
2018-07-01T19:19:51.735Z,0.60
2018-07-01T19:22:21.083Z,0.70
2018-07-01T19:24:50.433Z,0.60
2018-07-01T19:27:19.911Z,0.70
2018-07-01T19:29:49.280Z,0.53
2018-07-01T19:32:18.847Z,0.70
2018-07-01T19:34:49.277Z,0.70
2018-07-01T19:37:20.062Z,0.67
2018-07-01T19:39:49.525Z,0.37
2018-07-01T19:42:20.033Z,0.50
2018-07-01T19:44:49.377Z,0.60
2018-07-01T19:47:18.842Z,0.40
2018-07-01T19:49:48.092Z,0.80
2018-07-01T19:52:17.368Z,0.60
2018-07-01T19:54:46.713Z,0.60
2018-07-01T19:57:16.288Z,0.63
2018-07-01T19:59:45.749Z,0.60
2018-07-01T20:02:14.986Z,0.70
2018-07-01T20:04:44.323Z,0.40
2018-07-01T20:07:13.564Z,0.50
2018-07-01T20:09:42.805Z,0.60
2018-07-01T20:12:12.183Z,0.60
2018-07-01T20:14:41.469Z,0.70
2018-07-01T20:17:10.745Z,0.50
2018-07-01T20:19:40.093Z,0.50
2018-07-01T20:22:09.870Z,0.70
2018-07-01T20:24:40.468Z,0.97
2018-07-01T20:27:10.641Z,1.00
2018-07-01T20:29:39.899Z,0.60
2018-07-01T20:32:09.475Z,0.90
2018-07-01T20:34:38.871Z,0.40
2018-07-01T20:37:08.219Z,0.53
2018-07-01T20:39:37.633Z,0.40
2018-07-01T20:42:06.957Z,0.60
2018-07-01T20:44:36.402Z,0.57
2018-07-01T20:47:05.665Z,0.60
2018-07-01T20:49:35.022Z,8.97
2018-07-01T20:52:06.161Z,0.70
2018-07-01T20:54:35.339Z,0.70
2018-07-01T20:57:04.740Z,0.60
2018-07-01T20:59:34.063Z,0.60
2018-07-01T21:02:03.435Z,0.60
2018-07-01T21:04:33.375Z,0.30
2018-07-01T21:07:06.174Z,0.40
2018-07-01T21:09:35.754Z,0.70
2018-07-01T21:12:05.292Z,0.60
2018-07-01T21:14:34.549Z,0.50
2018-07-01T21:17:03.929Z,0.50
2018-07-01T21:19:33.571Z,0.57
2018-07-01T21:22:02.926Z,0.40
2018-07-01T21:24:32.220Z,0.40
2018-07-01T21:27:02.074Z,0.50
2018-07-01T21:29:31.478Z,0.50
2018-07-01T21:32:01.167Z,0.50
2018-07-01T21:34:30.075Z,0.97
2018-07-01T21:36:59.322Z,1.33
2018-07-01T21:39:28.621Z,1.90
2018-07-01T21:41:58.087Z,3.40
2018-07-01T21:44:27.498Z,3.57
2018-07-01T21:46:56.699Z,4.60
2018-07-01T21:49:26.025Z,4.87
2018-07-01T21:51:56.008Z,4.93
2018-07-01T21:54:25.325Z,4.30
2018-07-01T21:56:54.643Z,3.40
2018-07-01T21:59:24.090Z,3.80
2018-07-01T22:01:53.142Z,3.00
2018-07-01T22:04:22.410Z,2.30
2018-07-01T22:06:56.986Z,2.93
2018-07-01T22:09:26.273Z,3.67
2018-07-01T22:12:06.837Z,3.50
2018-07-01T22:16:17.902Z,3.50
2018-07-01T22:18:47.207Z,3.87
2018-07-01T22:21:16.549Z,4.23
2018-07-01T22:23:45.822Z,4.73
2018-07-01T22:26:15.143Z,4.43
2018-07-01T22:28:44.396Z,4.40
2018-07-01T22:31:13.324Z,6.07
2018-07-01T22:33:43.635Z,5.50
2018-07-01T22:36:12.896Z,5.07
2018-07-01T22:38:42.070Z,6.17
2018-07-01T22:41:11.349Z,5.77
2018-07-01T22:43:40.608Z,6.47
2018-07-01T22:46:09.871Z,6.13
2018-07-01T22:48:40.010Z,6.30
2018-07-01T22:51:09.268Z,6.00
2018-07-01T22:53:38.755Z,6.20
2018-07-01T22:56:08.082Z,6.57
2018-07-01T22:58:37.333Z,6.40
2018-07-01T23:01:06.562Z,6.77
2018-07-01T23:03:35.265Z,7.17
2018-07-01T23:06:04.496Z,6.47
2018-07-01T23:08:33.788Z,6.50
2018-07-01T23:11:02.999Z,6.17
2018-07-01T23:13:32.679Z,4.60
2018-07-01T23:16:02.000Z,4.50
2018-07-01T23:18:31.243Z,4.30
2018-07-01T23:21:00.587Z,4.00
2018-07-01T23:23:30.878Z,4.97
2018-07-01T23:25:59.775Z,5.13
2018-07-01T23:28:28.870Z,4.97
2018-07-01T23:30:58.071Z,5.27
2018-07-01T23:33:27.496Z,5.00
2018-07-01T23:35:56.728Z,5.50
2018-07-01T23:38:26.028Z,5.50
2018-07-01T23:40:55.620Z,4.80
2018-07-01T23:43:24.975Z,5.10
2018-07-01T23:45:54.219Z,4.97
2018-07-01T23:48:23.511Z,5.13
2018-07-01T23:50:52.697Z,5.17
2018-07-01T23:53:23.000Z,5.53
2018-07-01T23:55:52.405Z,5.60
2018-07-01T23:58:21.739Z,5.10
